createdAt,value
2022-08-11T00:01:11.962Z,20.44
2022-08-11T00:03:46.982Z,20.49
2022-08-11T00:06:16.505Z,20.47
2022-08-11T00:08:51.171Z,20.48
2022-08-11T00:11:19.793Z,20.57
2022-08-11T00:13:50.758Z,20.57
2022-08-11T00:16:22.952Z,20.49
2022-08-11T00:18:55.917Z,20.33
2022-08-11T00:21:54.618Z,20.21
2022-08-11T00:24:15.878Z,20.13
2022-08-11T00:26:49.338Z,20.04
2022-08-11T00:29:18.144Z,20.16
2022-08-11T00:31:51.847Z,20.17
2022-08-11T00:34:23.901Z,20.11
2022-08-11T00:36:56.601Z,19.97
2022-08-11T00:39:28.652Z,19.92
2022-08-11T00:42:07.993Z,19.96
2022-08-11T00:44:54.267Z,19.87
2022-08-11T00:47:36.565Z,19.88
2022-08-11T00:50:14.676Z,19.81
2022-08-11T00:53:26.215Z,19.74
2022-08-11T00:56:19.809Z,19.68
2022-08-11T00:59:35.089Z,19.53
2022-08-11T01:02:15.880Z,19.67
2022-08-11T01:05:17.554Z,19.78
2022-08-11T01:08:15.625Z,19.77
2022-08-11T01:11:19.200Z,19.31
2022-08-11T01:14:33.761Z,19.02
2022-08-11T01:17:35.892Z,19.25
2022-08-11T01:20:45.762Z,19.28
2022-08-11T01:23:39.246Z,19.36
2022-08-11T01:26:46.092Z,19.29
2022-08-11T01:29:56.805Z,19.34
2022-08-11T01:32:56.984Z,19.25
2022-08-11T01:35:41.854Z,19.15
2022-08-11T01:38:47.979Z,18.99
2022-08-11T01:42:19.891Z,18.90
2022-08-11T01:45:08.255Z,18.79
2022-08-11T01:47:54.654Z,18.74
2022-08-11T01:50:33.013Z,18.66
2022-08-11T01:53:11.615Z,18.78
2022-08-11T01:56:00.249Z,18.76
2022-08-11T01:58:43.344Z,18.72
2022-08-11T02:01:17.736Z,18.75
2022-08-11T02:03:54.237Z,18.72
2022-08-11T02:06:49.449Z,18.84
2022-08-11T02:09:34.768Z,18.78
2022-08-11T02:12:15.716Z,18.69
2022-08-11T02:15:04.483Z,18.59
2022-08-11T02:17:50.647Z,18.46
2022-08-11T02:20:44.796Z,18.51
2022-08-11T02:24:07.106Z,18.71
2022-08-11T02:26:41.819Z,18.74
2022-08-11T02:29:20.244Z,18.75
2022-08-11T02:32:28.792Z,18.73
2022-08-11T02:35:06.225Z,18.32
2022-08-11T02:37:49.719Z,18.15
2022-08-11T02:40:25.200Z,17.93
2022-08-11T02:43:19.502Z,17.90
2022-08-11T02:45:55.794Z,17.92
2022-08-11T02:48:55.340Z,17.91
2022-08-11T02:51:31.717Z,17.85
2022-08-11T02:54:10.714Z,17.84
2022-08-11T02:56:52.419Z,17.76
2022-08-11T02:59:53.290Z,17.70
2022-08-11T03:02:35.130Z,17.61
2022-08-11T03:05:14.138Z,17.57
2022-08-11T03:07:52.964Z,17.58
2022-08-11T03:10:25.436Z,17.64
2022-08-11T03:13:17.281Z,17.65
2022-08-11T03:16:11.300Z,17.71
2022-08-11T03:18:42.751Z,17.86
2022-08-11T03:21:19.260Z,17.80
2022-08-11T03:24:02.435Z,17.95
2022-08-11T03:26:38.651Z,17.92
2022-08-11T03:29:18.368Z,17.92
2022-08-11T03:32:02.390Z,17.79
2022-08-11T03:34:38.593Z,17.95
2022-08-11T03:37:50.390Z,18.01
2022-08-11T03:40:51.881Z,17.83
2022-08-11T03:43:34.843Z,17.82
2022-08-11T03:46:09.809Z,17.83
2022-08-11T03:48:50.079Z,17.77
2022-08-11T03:51:23.828Z,17.96
2022-08-11T03:54:11.679Z,17.93
2022-08-11T03:57:16.004Z,18.03
2022-08-11T04:00:04.706Z,17.98
2022-08-11T04:03:48.336Z,18.08
2022-08-11T04:06:38.368Z,18.13
2022-08-11T04:09:46.491Z,18.00
2022-08-11T04:12:44.242Z,18.04
2022-08-11T04:15:47.645Z,18.02
2022-08-11T04:18:45.049Z,17.99
2022-08-11T04:21:49.935Z,17.98
2022-08-11T04:24:39.990Z,18.11
2022-08-11T04:27:40.594Z,18.28
2022-08-11T04:30:14.995Z,18.44
2022-08-11T04:33:12.704Z,18.56
2022-08-11T04:35:50.955Z,18.59
2022-08-11T04:38:59.996Z,18.59
2022-08-11T04:42:14.768Z,18.66
2022-08-11T04:45:17.079Z,18.92
2022-08-11T04:48:21.852Z,19.20
2022-08-11T04:51:27.086Z,19.49
2022-08-11T04:54:28.414Z,19.57
2022-08-11T04:57:23.176Z,19.86
2022-08-11T05:00:21.300Z,19.95
2022-08-11T05:03:35.081Z,20.04
2022-08-11T05:06:56.485Z,20.17
2022-08-11T05:09:45.904Z,20.49
2022-08-11T05:12:26.755Z,20.52
2022-08-11T05:15:13.846Z,20.73
2022-08-11T05:18:14.324Z,20.95
2022-08-11T05:21:07.932Z,20.79
2022-08-11T05:23:58.382Z,21.04
2022-08-11T05:26:49.202Z,20.84
2022-08-11T05:29:55.243Z,21.01
2022-08-11T05:32:42.117Z,21.25
2022-08-11T05:35:28.302Z,21.55
2022-08-11T05:38:19.851Z,21.56
2022-08-11T05:41:10.847Z,21.78
2022-08-11T05:44:20.395Z,21.80
2022-08-11T05:47:09.449Z,21.83
2022-08-11T05:49:57.884Z,22.18
2022-08-11T05:52:46.885Z,21.87
2022-08-11T05:55:35.664Z,21.91
2022-08-11T05:58:24.338Z,22.30
2022-08-11T06:00:54.955Z,22.68
2022-08-11T06:03:29.092Z,22.84
2022-08-11T06:05:59.183Z,22.79
2022-08-11T06:08:36.188Z,22.92
2022-08-11T06:11:06.482Z,22.73
2022-08-11T06:13:35.919Z,22.40
2022-08-11T06:16:07.171Z,22.59
2022-08-11T06:18:36.670Z,23.21
2022-08-11T06:21:11.063Z,23.38
2022-08-11T06:23:42.623Z,23.36
2022-08-11T06:26:11.718Z,23.51
2022-08-11T06:28:41.737Z,23.82
2022-08-11T06:31:15.442Z,23.76
2022-08-11T06:33:57.217Z,23.85
2022-08-11T06:36:33.261Z,23.38
2022-08-11T06:39:14.698Z,23.80
2022-08-11T06:41:47.954Z,23.89
2022-08-11T06:44:28.841Z,24.09
2022-08-11T06:47:08.972Z,23.98
2022-08-11T06:49:56.854Z,23.96
2022-08-11T06:52:34.993Z,24.58
2022-08-11T06:55:55.526Z,25.05
2022-08-11T06:58:15.773Z,25.34
2022-08-11T07:00:44.952Z,25.42
2022-08-11T07:03:19.065Z,24.96
2022-08-11T07:05:50.438Z,25.06
2022-08-11T07:08:59.741Z,25.48
2022-08-11T07:12:08.543Z,25.99
2022-08-11T07:15:00.290Z,25.68
2022-08-11T07:17:32.900Z,25.57
2022-08-11T07:20:24.506Z,26.27
2022-08-11T07:23:15.634Z,26.46
2022-08-11T07:26:04.099Z,26.96
2022-08-11T07:28:52.045Z,27.20
2022-08-11T07:31:31.688Z,27.79
2022-08-11T07:34:15.849Z,27.69
2022-08-11T07:36:52.751Z,27.48
2022-08-11T07:39:23.559Z,28.45
2022-08-11T07:41:53.956Z,28.80
2022-08-11T07:44:30.716Z,29.11
2022-08-11T07:47:19.812Z,28.64
2022-08-11T07:50:08.018Z,28.19
2022-08-11T07:52:40.955Z,28.14
2022-08-11T07:55:14.743Z,28.86
2022-08-11T07:58:15.613Z,28.99
2022-08-11T08:01:10.626Z,29.65
2022-08-11T08:04:07.019Z,29.52
2022-08-11T08:06:54.096Z,29.34
2022-08-11T08:09:43.223Z,29.22
2022-08-11T08:12:29.079Z,29.58
2022-08-11T08:15:16.071Z,30.62
2022-08-11T08:18:09.014Z,30.81
2022-08-11T08:20:47.706Z,31.15
2022-08-11T08:23:17.182Z,30.76
2022-08-11T08:25:47.520Z,31.07
2022-08-11T08:28:18.632Z,31.19
2022-08-11T08:30:50.680Z,31.19
2022-08-11T08:33:22.763Z,31.96
2022-08-11T08:36:11.849Z,32.63
2022-08-11T08:38:42.461Z,32.49
2022-08-11T08:41:16.458Z,32.21
2022-08-11T08:43:50.434Z,32.14
2022-08-11T08:46:22.373Z,32.05
2022-08-11T08:48:51.268Z,31.57
2022-08-11T08:52:02.064Z,31.52
2022-08-11T08:54:28.604Z,31.82
2022-08-11T08:57:05.415Z,31.93
2022-08-11T08:59:48.907Z,31.29
2022-08-11T09:02:34.284Z,31.62
2022-08-11T09:05:04.588Z,31.80
2022-08-11T09:07:38.797Z,31.85
2022-08-11T09:10:09.983Z,31.57
2022-08-11T09:12:42.398Z,32.20
2022-08-11T09:15:12.861Z,32.44
2022-08-11T09:17:45.553Z,32.72
2022-08-11T09:20:16.249Z,32.68
2022-08-11T09:26:11.268Z,33.12
2022-08-11T09:28:42.868Z,32.26
2022-08-11T09:31:13.478Z,31.28
2022-08-11T09:33:42.918Z,30.90
2022-08-11T09:36:30.838Z,31.03
2022-08-11T09:39:18.699Z,31.48
2022-08-11T09:42:00.687Z,31.86
2022-08-11T09:44:50.163Z,31.81
2022-08-11T09:47:24.704Z,31.53
2022-08-11T09:50:00.342Z,31.20
2022-08-11T09:52:31.911Z,31.05
2022-08-11T09:55:00.750Z,30.64
2022-08-11T09:57:55.172Z,30.90
2022-08-11T10:00:30.317Z,31.11
2022-08-11T10:03:02.912Z,31.50
2022-08-11T10:05:49.913Z,31.07
2022-08-11T10:08:20.104Z,31.23
2022-08-11T10:10:48.993Z,32.14
2022-08-11T10:14:31.497Z,32.61
2022-08-11T10:16:16.044Z,32.97
2022-08-11T10:18:53.654Z,32.93
2022-08-11T10:21:29.314Z,31.87
2022-08-11T10:24:17.539Z,32.40
2022-08-11T10:26:54.651Z,32.03
2022-08-11T10:29:44.372Z,31.90
2022-08-11T10:32:46.383Z,30.80
2022-08-11T10:35:27.474Z,31.46
2022-08-11T10:38:08.395Z,32.82
2022-08-11T10:40:39.767Z,33.48
2022-08-11T10:43:13.428Z,34.75
2022-08-11T10:46:03.318Z,38.06
2022-08-11T10:48:38.127Z,38.17
2022-08-11T10:51:13.832Z,37.11
2022-08-11T10:54:01.895Z,38.01
2022-08-11T10:56:51.031Z,37.10
2022-08-11T10:59:19.291Z,39.22
2022-08-11T11:01:48.341Z,37.57
2022-08-11T11:04:20.333Z,37.42
2022-08-11T11:06:54.787Z,37.00
2022-08-11T11:09:32.421Z,36.36
2022-08-11T11:12:22.337Z,35.32
2022-08-11T11:15:17.420Z,34.13
2022-08-11T11:17:57.986Z,33.86
2022-08-11T11:20:36.504Z,34.02
2022-08-11T11:23:11.531Z,35.33
2022-08-11T11:26:27.066Z,35.96
2022-08-11T11:29:28.949Z,34.46
2022-08-11T11:32:15.262Z,36.10
2022-08-11T11:35:21.767Z,36.99
2022-08-11T11:38:04.504Z,35.98
2022-08-11T11:40:34.676Z,38.86
2022-08-11T11:43:03.986Z,38.69
2022-08-11T11:45:32.323Z,39.53
2022-08-11T11:48:02.060Z,41.03
2022-08-11T11:50:33.170Z,40.75
2022-08-11T11:53:07.000Z,41.23
2022-08-11T11:55:36.027Z,41.28
2022-08-11T11:58:23.001Z,38.89
2022-08-11T12:01:10.819Z,38.03
2022-08-11T12:03:40.776Z,38.96
2022-08-11T12:06:12.091Z,39.58
2022-08-11T12:08:43.339Z,39.92
2022-08-11T12:11:30.065Z,41.45
2022-08-11T12:14:00.936Z,43.68
2022-08-11T12:16:32.872Z,43.61
2022-08-11T12:19:05.399Z,40.33
2022-08-11T12:21:36.013Z,36.82
2022-08-11T12:24:29.318Z,40.17
2022-08-11T12:27:18.381Z,42.16
2022-08-11T12:29:54.428Z,40.97
2022-08-11T12:32:25.508Z,39.95
2022-08-11T12:34:53.732Z,41.25
2022-08-11T12:37:27.113Z,41.39
2022-08-11T12:40:42.518Z,40.52
2022-08-11T12:43:38.160Z,44.97
2022-08-11T12:46:15.557Z,42.59
2022-08-11T12:49:04.042Z,42.05
2022-08-11T12:52:11.466Z,43.58
2022-08-11T12:54:57.375Z,41.54
2022-08-11T12:57:50.111Z,40.74
2022-08-11T13:00:36.611Z,39.39
2022-08-11T13:03:24.470Z,39.03
2022-08-11T13:05:54.988Z,40.65
2022-08-11T13:08:25.966Z,41.21
2022-08-11T13:11:13.321Z,41.93
2022-08-11T13:13:55.600Z,43.81
2022-08-11T13:16:28.547Z,43.77
2022-08-11T13:18:58.067Z,41.88
2022-08-11T13:21:27.991Z,42.01
2022-08-11T13:24:00.792Z,44.10
2022-08-11T13:26:48.499Z,44.88
2022-08-11T13:29:22.431Z,42.54
2022-08-11T13:31:52.111Z,41.47
2022-08-11T13:34:22.091Z,41.94
2022-08-11T13:36:53.220Z,44.96
2022-08-11T13:39:24.456Z,44.59
2022-08-11T13:41:56.787Z,44.27
2022-08-11T13:44:29.336Z,42.45
2022-08-11T13:47:01.319Z,42.83
2022-08-11T13:49:32.187Z,41.76
2022-08-11T13:52:01.293Z,42.53
2022-08-11T13:54:33.410Z,44.15
2022-08-11T13:57:09.356Z,41.86
2022-08-11T13:59:52.477Z,39.61
2022-08-11T14:02:29.132Z,39.19
2022-08-11T14:05:01.948Z,41.40
2022-08-11T14:07:37.056Z,41.93
2022-08-11T14:10:07.849Z,42.86
2022-08-11T14:12:56.226Z,43.79
2022-08-11T14:15:29.964Z,43.61
2022-08-11T14:18:05.080Z,41.83
2022-08-11T14:20:50.546Z,43.14
2022-08-11T14:23:21.059Z,43.71
2022-08-11T14:26:07.397Z,42.36
2022-08-11T14:28:41.570Z,42.20
2022-08-11T14:31:15.457Z,42.41
2022-08-11T14:33:59.747Z,42.23
2022-08-11T14:36:36.307Z,43.00
2022-08-11T14:39:13.327Z,43.52
2022-08-11T14:42:10.862Z,41.53
2022-08-11T14:45:16.913Z,40.42
2022-08-11T14:47:51.450Z,40.98
2022-08-11T14:50:24.013Z,41.78
2022-08-11T14:52:55.112Z,42.28
2022-08-11T14:55:43.632Z,42.94
2022-08-11T14:58:14.298Z,41.65
2022-08-11T15:00:43.677Z,42.14
2022-08-11T15:03:14.416Z,40.57
2022-08-11T15:05:56.736Z,41.17
2022-08-11T15:08:47.213Z,40.28
2022-08-11T15:11:50.066Z,40.92
2022-08-11T15:14:39.699Z,40.95
2022-08-11T15:17:10.044Z,41.63
2022-08-11T15:20:04.085Z,41.37
2022-08-11T15:22:50.004Z,41.75
2022-08-11T15:25:20.089Z,42.72
2022-08-11T15:28:09.164Z,41.00
2022-08-11T15:30:56.192Z,41.71
2022-08-11T15:33:45.873Z,42.68
2022-08-11T15:36:33.516Z,41.36
2022-08-11T15:39:09.299Z,41.43
2022-08-11T15:42:12.577Z,39.68
2022-08-11T15:45:03.179Z,38.96
2022-08-11T15:47:41.385Z,36.45
2022-08-11T15:50:14.705Z,38.84
2022-08-11T15:52:48.235Z,41.70
2022-08-11T15:55:17.810Z,42.59
2022-08-11T15:58:06.641Z,42.17
2022-08-11T16:01:01.266Z,41.47
2022-08-11T16:04:07.421Z,42.79
2022-08-11T16:06:46.325Z,42.42
2022-08-11T16:09:22.238Z,40.77
2022-08-11T16:11:51.281Z,40.60
2022-08-11T16:14:38.699Z,40.02
2022-08-11T16:17:10.421Z,39.56
2022-08-11T16:19:41.366Z,38.51
2022-08-11T16:22:12.942Z,38.33
2022-08-11T16:27:03.822Z,38.47
2022-08-11T16:27:38.977Z,38.08
2022-08-11T16:30:09.138Z,37.25
2022-08-11T16:32:40.746Z,38.51
2022-08-11T16:35:29.044Z,38.26
2022-08-11T16:38:15.988Z,37.55
2022-08-11T16:40:47.226Z,37.96
2022-08-11T16:43:36.402Z,38.72
2022-08-11T16:46:23.435Z,37.45
2022-08-11T16:48:54.676Z,37.35
2022-08-11T16:51:24.019Z,37.13
2022-08-11T16:54:05.108Z,36.41
2022-08-11T16:56:42.508Z,36.74
2022-08-11T16:59:14.985Z,37.22
2022-08-11T17:01:46.810Z,37.10
2022-08-11T17:04:40.120Z,37.35
2022-08-11T17:07:50.581Z,37.02
2022-08-11T17:10:51.298Z,36.63
2022-08-11T17:13:35.295Z,36.71
2022-08-11T17:16:08.908Z,36.84
2022-08-11T17:18:44.185Z,36.07
2022-08-11T17:21:27.209Z,36.57
2022-08-11T17:23:56.834Z,36.19
2022-08-11T17:26:49.715Z,36.53
2022-08-11T17:29:22.956Z,37.17
2022-08-11T17:32:09.175Z,37.15
2022-08-11T17:34:56.164Z,37.11
2022-08-11T17:37:25.898Z,36.68
2022-08-11T17:39:56.154Z,36.64
2022-08-11T17:42:47.350Z,36.59
2022-08-11T17:45:36.078Z,36.39
2022-08-11T17:48:23.877Z,36.08
2022-08-11T17:50:53.500Z,35.63
2022-08-11T17:53:39.791Z,36.08
2022-08-11T17:56:29.047Z,36.23
2022-08-11T17:59:22.495Z,36.11
2022-08-11T18:01:54.264Z,35.92
2022-08-11T18:04:25.710Z,35.42
2022-08-11T18:06:56.125Z,34.90
2022-08-11T18:09:42.618Z,34.56
2022-08-11T18:12:28.705Z,33.99
2022-08-11T18:15:16.353Z,33.33
2022-08-11T18:18:03.823Z,33.09
2022-08-11T18:20:50.337Z,32.84
2022-08-11T18:23:46.143Z,32.62
2022-08-11T18:26:38.514Z,32.38
2022-08-11T18:29:26.638Z,32.05
2022-08-11T18:32:21.282Z,31.75
2022-08-11T18:35:13.983Z,31.43
2022-08-11T18:38:05.718Z,31.12
2022-08-11T18:40:54.242Z,30.82
2022-08-11T18:43:42.974Z,30.50
2022-08-11T18:46:32.878Z,30.20
2022-08-11T18:49:31.676Z,29.90
2022-08-11T18:52:34.599Z,29.55
2022-08-11T18:55:23.181Z,29.30
2022-08-11T18:58:11.028Z,29.11
2022-08-11T19:00:58.762Z,28.95
2022-08-11T19:03:48.519Z,28.78
2022-08-11T19:06:40.914Z,28.57
2022-08-11T19:09:33.309Z,28.35
2022-08-11T19:12:20.205Z,28.14
2022-08-11T19:15:09.170Z,28.04
2022-08-11T19:17:59.230Z,27.63
2022-08-11T19:20:48.413Z,27.46
2022-08-11T19:23:37.711Z,27.46
2022-08-11T19:26:27.579Z,27.35
2022-08-11T19:30:12.035Z,27.28
2022-08-11T19:32:25.544Z,27.17
2022-08-11T19:35:11.914Z,27.06
2022-08-11T19:37:58.986Z,26.85
2022-08-11T19:40:46.560Z,26.79
2022-08-11T19:43:36.486Z,26.35
2022-08-11T19:46:25.062Z,26.02
2022-08-11T19:49:13.374Z,26.10
2022-08-11T19:52:00.981Z,25.86
2022-08-11T19:54:50.507Z,25.72
2022-08-11T19:57:40.166Z,25.69
2022-08-11T20:00:31.388Z,25.74
2022-08-11T20:03:19.505Z,25.58
2022-08-11T20:06:07.195Z,25.59
2022-08-11T20:08:58.621Z,25.29
2022-08-11T20:11:46.729Z,25.24
2022-08-11T20:14:33.467Z,25.11
2022-08-11T20:17:21.970Z,25.10
2022-08-11T20:20:09.122Z,24.74
2022-08-11T20:22:55.973Z,24.78
2022-08-11T20:25:43.819Z,24.95
2022-08-11T20:28:32.859Z,25.09
2022-08-11T20:31:18.264Z,25.08
2022-08-11T20:34:06.596Z,25.13
2022-08-11T20:36:56.398Z,25.16
2022-08-11T20:39:43.729Z,25.18
2022-08-11T20:42:30.974Z,25.11
2022-08-11T20:45:23.944Z,25.04
2022-08-11T20:48:14.989Z,24.95
2022-08-11T20:51:06.249Z,24.96
2022-08-11T20:53:56.570Z,24.96
2022-08-11T20:56:44.133Z,24.90
2022-08-11T20:59:50.097Z,24.74
2022-08-11T21:02:44.466Z,24.70
2022-08-11T21:06:09.299Z,24.72
2022-08-11T21:08:41.781Z,24.71
2022-08-11T21:11:30.184Z,24.74
2022-08-11T21:14:18.910Z,24.70
2022-08-11T21:17:26.928Z,24.70
2022-08-11T21:20:21.148Z,24.69
2022-08-11T21:23:10.379Z,24.73
2022-08-11T21:26:12.833Z,24.74
2022-08-11T21:28:59.645Z,24.76
2022-08-11T21:31:47.362Z,24.73
2022-08-11T21:34:35.901Z,24.69
2022-08-11T21:37:23.501Z,24.70
2022-08-11T21:40:14.837Z,24.69
2022-08-11T21:43:05.373Z,24.60
2022-08-11T21:45:55.370Z,24.56
2022-08-11T21:48:42.224Z,24.44
2022-08-11T21:51:28.164Z,24.35
2022-08-11T21:54:16.101Z,24.20
2022-08-11T21:57:04.252Z,24.13
2022-08-11T22:00:02.864Z,24.02
2022-08-11T22:02:57.108Z,23.97
2022-08-11T22:05:44.504Z,23.95
2022-08-11T22:08:31.447Z,23.80
2022-08-11T22:11:31.755Z,23.73
2022-08-11T22:14:18.901Z,23.67
2022-08-11T22:17:06.377Z,23.53
2022-08-11T22:19:53.207Z,23.49
2022-08-11T22:22:52.307Z,23.43
2022-08-11T22:25:39.192Z,23.40
2022-08-11T22:28:38.485Z,23.36
2022-08-11T22:31:25.415Z,23.28
2022-08-11T22:34:13.469Z,23.12
2022-08-11T22:37:00.039Z,23.10
2022-08-11T22:40:00.037Z,23.07
2022-08-11T22:42:48.764Z,23.07
2022-08-11T22:45:34.633Z,23.08
2022-08-11T22:48:23.223Z,23.06
2022-08-11T22:51:10.918Z,23.04
2022-08-11T22:53:58.989Z,23.07
2022-08-11T22:56:46.694Z,23.04
2022-08-11T22:59:34.298Z,22.95
2022-08-11T23:02:20.854Z,22.87
2022-08-11T23:05:07.666Z,22.66
2022-08-11T23:07:56.312Z,22.39
2022-08-11T23:10:43.088Z,22.20
2022-08-11T23:13:29.493Z,22.18
2022-08-11T23:16:17.078Z,22.13
2022-08-11T23:19:04.485Z,21.85
2022-08-11T23:21:52.240Z,21.72
2022-08-11T23:24:40.153Z,21.50
2022-08-11T23:27:28.140Z,21.35
2022-08-11T23:30:17.098Z,21.20
2022-08-11T23:33:07.544Z,21.14
2022-08-11T23:35:56.737Z,21.10
2022-08-11T23:38:45.107Z,21.11
2022-08-11T23:41:35.174Z,20.97
2022-08-11T23:44:22.387Z,20.89
2022-08-11T23:47:10.713Z,20.79
2022-08-11T23:49:57.660Z,20.78
2022-08-11T23:52:45.020Z,20.86
2022-08-11T23:55:30.745Z,20.85
2022-08-11T23:58:17.834Z,20.76
